Wetterdaten: Woche 09.11.15 - 15.11.15 (KW46)
Datum Zeit Temp. Aussen Temp. o. S. +5cm Feuchte Auss BlattFeu 1 Luftdruck Regen Sonnenschein Regendauer Solar Windben Empfang
09.11.2015 00:00 17,1 C 17,2 C 15,6 C 89 % 0 lf 1017,5 hPa 0,0 l/m 0,00 h 0,00 h 0 W/m 28,6 km/h (4 Bft) 96,63 %
09.11.2015 01:00 17,3 C 17,2 C 15,6 C 87 % 0 lf 1017,9 hPa 0,0 l/m 0,00 h 0,00 h 0 W/m 27,2 km/h (4 Bft) 94,07 %
09.11.2015 02:00 17,2 C 16,8 C 15,1 C 88 % 5 lf 1018,4 hPa 0,2 l/m 0,00 h 0,40 h 0 W/m 27,3 km/h (4 Bft) 97,61 %
09.11.2015 03:00 16,4 C 15,1 C 13,9 C 92 % 15 lf 1018,4 hPa 0,8 l/m 0,00 h 0,93 h 0 W/m 22,4 km/h (4 Bft) 95,54 %
09.11.2015 04:00 15,8 C 15,0 C 13,8 C 95 % 15 lf 1018,7 hPa 0,2 l/m 0,00 h 0,27 h 0 W/m 26,2 km/h (4 Bft) 96,89 %
09.11.2015 05:00 15,5 C 14,9 C 13,3 C 96 % 15 lf 1019,3 hPa 0,0 l/m 0,00 h 0,23 h 0 W/m 21,0 km/h (4 Bft) 96,05 %
09.11.2015 06:00 15,1 C 14,3 C 12,9 C 95 % 15 lf 1019,9 hPa 0,0 l/m 0,00 h 0,10 h 0 W/m 15,7 km/h (3 Bft) 95,95 %
09.11.2015 07:00 14,7 C 14,1 C 12,4 C 94 % 7 lf 1020,3 hPa 0,0 l/m 0,00 h 0,00 h 7 W/m 18,3 km/h (3 Bft) 96,02 %
09.11.2015 08:00 14,4 C 14,8 C 12,1 C 91 % 0 lf 1020,7 hPa 0,0 l/m 0,60 h 0,00 h 57 W/m 24,8 km/h (4 Bft) 98,58 %
09.11.2015 09:00 14,7 C 15,9 C 12,6 C 88 % 0 lf 1021,9 hPa 0,0 l/m 0,67 h 0,00 h 135 W/m 29,0 km/h (5 Bft) 92,60 %
09.11.2015 10:00 14,8 C 16,2 C 13,2 C 82 % 0 lf 1022,4 hPa 0,0 l/m 0,30 h 0,00 h 144 W/m 35,1 km/h (5 Bft) 96,99 %
09.11.2015 11:00 15,1 C 15,9 C 13,9 C 80 % 0 lf 1022,5 hPa 0,0 l/m 0,03 h 0,00 h 144 W/m 34,9 km/h (5 Bft) 97,23 %
09.11.2015 12:00 14,8 C 15,6 C 13,9 C 78 % 0 lf 1022,6 hPa 0,0 l/m 0,00 h 0,00 h 145 W/m 29,7 km/h (5 Bft) 95,34 %
09.11.2015 13:00 14,9 C 16,3 C 13,9 C 77 % 0 lf 1022,7 hPa 0,0 l/m 0,43 h 0,00 h 171 W/m 29,5 km/h (5 Bft) 94,81 %
09.11.2015 14:00 15,1 C 16,0 C 13,9 C 77 % 0 lf 1022,6 hPa 0,0 l/m 0,20 h 0,00 h 119 W/m 32,2 km/h (5 Bft) 98,65 %
09.11.2015 15:00 14,7 C 15,2 C 13,3 C 77 % 0 lf 1022,7 hPa 0,0 l/m 0,07 h 0,00 h 62 W/m 29,2 km/h (5 Bft) 93,90 %
09.11.2015 16:00 14,4 C 14,5 C 12,9 C 78 % 0 lf 1023,1 hPa 0,0 l/m 0,00 h 0,00 h 20 W/m 25,1 km/h (4 Bft) 95,80 %
09.11.2015 17:00 14,0 C 13,9 C 12,3 C 78 % 0 lf 1022,7 hPa 0,0 l/m 0,00 h 0,00 h 4 W/m 28,1 km/h (4 Bft) 97,01 %
09.11.2015 18:00 13,6 C 13,5 C 12,0 C 79 % 0 lf 1022,9 hPa 0,0 l/m 0,00 h 0,00 h 0 W/m 25,6 km/h (4 Bft) 94,59 %
09.11.2015 19:00 13,5 C 13,8 C 12,2 C 81 % 0 lf 1022,9 hPa 0,0 l/m 0,00 h 0,00 h 0 W/m 28,3 km/h (4 Bft) 97,44 %
09.11.2015 20:00 13,7 C 13,9 C 12,2 C 79 % 0 lf 1022,8 hPa 0,0 l/m 0,00 h 0,00 h 0 W/m 31,2 km/h (5 Bft) 96,22 %
09.11.2015 21:00 13,7 C 13,9 C 12,2 C 76 % 0 lf 1022,5 hPa 0,0 l/m 0,00 h 0,00 h 0 W/m 33,4 km/h (5 Bft) 93,38 %
09.11.2015 22:00 13,9 C 14,0 C 12,3 C 75 % 0 lf 1022,2 hPa 0,0 l/m 0,00 h 0,00 h 0 W/m 38,4 km/h (5 Bft) 98,67 %
09.11.2015 23:00 14,0 C 14,1 C 12,4 C 73 % 0 lf 1021,7 hPa 0,0 l/m 0,00 h 0,00 h 0 W/m 39,7 km/h (6 Bft) 95,73 %
10.11.2015 00:00 14,1 C 14,3 C 12,7 C 73 % 0 lf 1021,8 hPa 0,0 l/m 0,00 h 0,00 h 0 W/m 41,9 km/h (6 Bft) 93,49 %
10.11.2015 01:00 14,2 C 14,4 C 12,7 C 74 % 0 lf 1021,7 hPa 0,0 l/m 0,00 h 0,03 h 0 W/m 41,3 km/h (6 Bft) 97,51 %
10.11.2015 02:00 14,2 C 14,3 C 12,8 C 75 % 0 lf 1021,6 hPa 0,0 l/m 0,00 h 0,00 h 0 W/m 42,2 km/h (6 Bft) 97,22 %
10.11.2015 03:00 13,9 C 13,9 C 12,3 C 78 % 0 lf 1021,9 hPa 0,0 l/m 0,00 h 0,00 h 0 W/m 42,1 km/h (6 Bft) 93,59 %
10.11.2015 04:00 13,6 C 13,7 C 12,2 C 82 % 0 lf 1021,6 hPa 0,0 l/m 0,00 h 0,00 h 0 W/m 36,5 km/h (5 Bft) 97,88 %
10.11.2015 05:00 13,2 C 13,3 C 11,8 C 86 % 0 lf 1021,6 hPa 0,0 l/m 0,00 h 0,00 h 0 W/m 33,7 km/h (5 Bft) 96,24 %
10.11.2015 06:00 13,3 C 13,2 C 12,0 C 86 % 0 lf 1021,5 hPa 0,0 l/m 0,00 h 0,00 h 0 W/m 33,9 km/h (5 Bft) 96,37 %
10.11.2015 07:00 13,1 C 13,3 C 11,7 C 87 % 0 lf 1022,1 hPa 0,0 l/m 0,00 h 0,00 h 0 W/m 30,1 km/h (5 Bft) 95,73 %
10.11.2015 08:00 13,1 C 13,3 C 11,9 C 88 % 0 lf 1022,8 hPa 0,0 l/m 0,00 h 0,00 h 15 W/m 28,2 km/h (4 Bft) 95,37 %
10.11.2015 09:00 13,2 C 13,5 C 12,2 C 89 % 0 lf 1022,9 hPa 0,0 l/m 0,00 h 0,00 h 44 W/m 31,8 km/h (5 Bft) 96,57 %
10.11.2015 10:00 13,2 C 13,4 C 12,2 C 89 % 0 lf 1023,4 hPa 0,0 l/m 0,00 h 0,00 h 35 W/m 28,8 km/h (5 Bft) 97,01 %
10.11.2015 11:00 13,5 C 13,9 C 12,3 C 90 % 0 lf 1023,4 hPa 0,0 l/m 0,00 h 0,00 h 49 W/m 31,9 km/h (5 Bft) 93,74 %
10.11.2015 12:00 13,5 C 13,9 C 12,6 C 90 % 0 lf 1023,2 hPa 0,0 l/m 0,00 h 0,00 h 63 W/m 28,0 km/h (4 Bft) 94,52 %
10.11.2015 13:00 13,6 C 14,0 C 12,8 C 90 % 0 lf 1023,0 hPa 0,0 l/m 0,00 h 0,00 h 61 W/m 27,5 km/h (4 Bft) 98,44 %
10.11.2015 14:00 13,8 C 14,4 C 12,8 C 90 % 0 lf 1022,8 hPa 0,0 l/m 0,00 h 0,00 h 65 W/m 28,4 km/h (4 Bft) 94,47 %
10.11.2015 15:00 14,2 C 14,5 C 13,3 C 90 % 0 lf 1022,4 hPa 0,0 l/m 0,13 h 0,00 h 62 W/m 27,4 km/h (4 Bft) 95,73 %
10.11.2015 16:00 14,4 C 14,6 C 13,3 C 90 % 0 lf 1022,2 hPa 0,0 l/m 0,27 h 0,00 h 25 W/m 22,7 km/h (4 Bft) 97,08 %
10.11.2015 17:00 14,3 C 14,4 C 12,8 C 91 % 0 lf 1022,5 hPa 0,0 l/m 0,00 h 0,00 h 0 W/m 22,8 km/h (4 Bft) 96,75 %
10.11.2015 18:00 14,1 C 14,0 C 12,8 C 91 % 0 lf 1022,8 hPa 0,0 l/m 0,00 h 0,00 h 0 W/m 26,1 km/h (4 Bft) 94,38 %
10.11.2015 19:00 13,8 C 13,9 C 12,5 C 92 % 0 lf 1022,9 hPa 0,0 l/m 0,00 h 0,00 h 0 W/m 29,8 km/h (5 Bft) 96,66 %
10.11.2015 20:00 13,6 C 13,9 C 12,2 C 93 % 0 lf 1023,2 hPa 0,0 l/m 0,00 h 0,00 h 0 W/m 31,0 km/h (5 Bft) 96,29 %
10.11.2015 21:00 13,5 C 13,9 C 12,2 C 94 % 0 lf 1023,2 hPa 0,0 l/m 0,00 h 0,00 h 0 W/m 28,3 km/h (4 Bft) 96,65 %
10.11.2015 22:00 13,6 C 13,9 C 12,2 C 94 % 0 lf 1023,4 hPa 0,0 l/m 0,00 h 0,00 h 0 W/m 29,5 km/h (5 Bft) 94,25 %
10.11.2015 23:00 13,6 C 13,9 C 12,2 C 94 % 0 lf 1023,4 hPa 0,0 l/m 0,00 h 0,00 h 0 W/m 25,7 km/h (4 Bft) 97,22 %
11.11.2015 00:00 13,5 C 13,6 C 12,2 C 93 % 0 lf 1023,5 hPa 0,0 l/m 0,00 h 0,00 h 0 W/m 26,2 km/h (4 Bft) 96,04 %
11.11.2015 01:00 13,3 C 13,2 C 12,1 C 91 % 1 lf 1023,5 hPa 0,0 l/m 0,00 h 0,17 h 0 W/m 23,9 km/h (4 Bft) 95,66 %
11.11.2015 02:00 13,1 C 13,3 C 11,7 C 89 % 0 lf 1023,3 hPa 0,0 l/m 0,00 h 0,00 h 0 W/m 21,5 km/h (4 Bft) 94,90 %
11.11.2015 03:00 12,9 C 12,9 C 11,5 C 88 % 0 lf 1023,3 hPa 0,0 l/m 0,00 h 0,07 h 0 W/m 21,7 km/h (4 Bft) 97,51 %
11.11.2015 04:00 12,5 C 12,6 C 11,1 C 88 % 0 lf 1023,4 hPa 0,0 l/m 0,00 h 0,00 h 0 W/m 23,2 km/h (4 Bft) 95,99 %
11.11.2015 05:00 12,1 C 12,0 C 10,8 C 88 % 0 lf 1023,4 hPa 0,0 l/m 0,00 h 0,00 h 0 W/m 19,0 km/h (3 Bft) 96,23 %
11.11.2015 06:00 11,7 C 11,8 C 10,6 C 88 % 0 lf 1023,5 hPa 0,0 l/m 0,00 h 0,00 h 0 W/m 21,7 km/h (4 Bft) 95,41 %
11.11.2015 07:00 11,6 C 11,7 C 10,6 C 87 % 0 lf 1023,4 hPa 0,0 l/m 0,00 h 0,00 h 6 W/m 21,7 km/h (4 Bft) 96,59 %
11.11.2015 08:00 11,6 C 12,1 C 10,6 C 85 % 0 lf 1023,9 hPa 0,0 l/m 0,00 h 0,00 h 26 W/m 21,0 km/h (4 Bft) 96,51 %
11.11.2015 09:00 11,8 C 12,3 C 11,1 C 81 % 0 lf 1024,2 hPa 0,0 l/m 0,00 h 0,00 h 54 W/m 23,1 km/h (4 Bft) 95,51 %
11.11.2015 10:00 12,1 C 12,8 C 11,4 C 80 % 0 lf 1024,2 hPa 0,0 l/m 0,00 h 0,00 h 71 W/m 20,3 km/h (4 Bft) 95,73 %
11.11.2015 11:00 12,5 C 13,1 C 11,7 C 79 % 0 lf 1024,4 hPa 0,0 l/m 0,00 h 0,00 h 74 W/m 21,5 km/h (4 Bft) 97,31 %
11.11.2015 12:00 12,8 C 13,5 C 12,0 C 79 % 0 lf 1024,3 hPa 0,0 l/m 0,00 h 0,00 h 90 W/m 22,0 km/h (4 Bft) 95,37 %
11.11.2015 13:00 13,0 C 13,6 C 12,2 C 79 % 0 lf 1023,9 hPa 0,0 l/m 0,00 h 0,00 h 91 W/m 23,4 km/h (4 Bft) 95,63 %
11.11.2015 14:00 13,0 C 13,6 C 12,2 C 78 % 0 lf 1023,6 hPa 0,0 l/m 0,00 h 0,00 h 77 W/m 20,6 km/h (4 Bft) 96,37 %
11.11.2015 15:00 12,9 C 13,2 C 11,8 C 76 % 0 lf 1023,4 hPa 0,0 l/m 0,00 h 0,00 h 50 W/m 22,7 km/h (4 Bft) 96,22 %
11.11.2015 16:00 12,6 C 12,7 C 11,3 C 76 % 0 lf 1023,2 hPa 0,0 l/m 0,00 h 0,00 h 15 W/m 22,2 km/h (4 Bft) 95,81 %
11.11.2015 17:00 12,2 C 12,2 C 11,0 C 77 % 0 lf 1023,2 hPa 0,0 l/m 0,00 h 0,00 h 0 W/m 18,2 km/h (3 Bft) 96,15 %
11.11.2015 18:00 12,0 C 12,2 C 10,6 C 79 % 0 lf 1023,3 hPa 0,0 l/m 0,00 h 0,00 h 0 W/m 18,8 km/h (3 Bft) 95,95 %
11.11.2015 19:00 11,8 C 12,2 C 10,6 C 80 % 0 lf 1023,3 hPa 0,0 l/m 0,00 h 0,00 h 0 W/m 17,6 km/h (3 Bft) 97,94 %
11.11.2015 20:00 11,8 C 12,2 C 10,6 C 82 % 0 lf 1023,1 hPa 0,0 l/m 0,00 h 0,00 h 0 W/m 18,2 km/h (3 Bft) 95,65 %
11.11.2015 21:00 11,8 C 11,8 C 10,6 C 83 % 0 lf 1023,1 hPa 0,0 l/m 0,00 h 0,00 h 0 W/m 14,5 km/h (3 Bft) 94,52 %
11.11.2015 22:00 11,8 C 12,2 C 10,6 C 84 % 0 lf 1023,1 hPa 0,0 l/m 0,00 h 0,00 h 0 W/m 14,2 km/h (3 Bft) 98,04 %
11.11.2015 23:00 12,1 C 12,2 C 11,0 C 84 % 0 lf 1023,1 hPa 0,0 l/m 0,00 h 0,00 h 0 W/m 13,5 km/h (3 Bft) 96,23 %
12.11.2015 00:00 12,2 C 12,2 C 11,1 C 85 % 0 lf 1023,0 hPa 0,0 l/m 0,00 h 0,00 h 0 W/m 13,9 km/h (3 Bft) 94,84 %
12.11.2015 01:00 12,3 C 12,2 C 11,0 C 86 % 0 lf 1023,2 hPa 0,0 l/m 0,00 h 0,00 h 0 W/m 14,0 km/h (3 Bft) 97,08 %
12.11.2015 02:00 12,1 C 11,8 C 10,4 C 88 % 0 lf 1023,3 hPa 0,0 l/m 0,00 h 0,00 h 0 W/m 13,2 km/h (3 Bft) 96,01 %
12.11.2015 03:00 11,7 C 11,7 C 10,4 C 91 % 0 lf 1023,5 hPa 0,0 l/m 0,00 h 0,00 h 0 W/m 11,9 km/h (2 Bft) 95,46 %
12.11.2015 04:00 11,9 C 12,2 C 10,6 C 92 % 0 lf 1023,6 hPa 0,0 l/m 0,00 h 0,00 h 0 W/m 13,3 km/h (3 Bft) 96,58 %
12.11.2015 05:00 11,9 C 12,2 C 10,7 C 92 % 0 lf 1023,7 hPa 0,0 l/m 0,00 h 0,00 h 0 W/m 13,8 km/h (3 Bft) 94,53 %
12.11.2015 06:00 12,1 C 12,2 C 10,9 C 92 % 0 lf 1023,9 hPa 0,0 l/m 0,00 h 0,00 h 0 W/m 14,8 km/h (3 Bft) 97,65 %
12.11.2015 07:00 11,9 C 11,8 C 10,3 C 92 % 0 lf 1024,1 hPa 0,0 l/m 0,00 h 0,00 h 6 W/m 12,6 km/h (3 Bft) 97,01 %
12.11.2015 08:00 11,4 C 11,4 C 9,9 C 92 % 1 lf 1024,7 hPa 0,0 l/m 0,00 h 0,00 h 36 W/m 8,2 km/h (2 Bft) 93,81 %
12.11.2015 09:00 11,6 C 13,7 C 11,0 C 94 % 0 lf 1025,1 hPa 0,0 l/m 0,87 h 0,00 h 153 W/m 14,2 km/h (3 Bft) 95,97 %
12.11.2015 10:00 12,9 C 17,3 C 12,1 C 92 % 0 lf 1025,5 hPa 0,0 l/m 0,67 h 0,00 h 193 W/m 19,0 km/h (3 Bft) 98,00 %
12.11.2015 11:00 14,0 C 19,4 C 12,9 C 88 % 0 lf 1025,6 hPa 0,0 l/m 0,77 h 0,00 h 240 W/m 15,4 km/h (3 Bft) 92,62 %
12.11.2015 12:00 15,3 C 20,0 C 13,9 C 83 % 0 lf 1025,5 hPa 0,0 l/m 0,60 h 0,00 h 228 W/m 13,7 km/h (3 Bft) 97,44 %
12.11.2015 13:00 15,1 C 15,5 C 13,7 C 83 % 0 lf 1025,1 hPa 0,0 l/m 0,00 h 0,00 h 68 W/m 8,3 km/h (2 Bft) 98,79 %
12.11.2015 14:00 14,8 C 14,8 C 13,0 C 84 % 0 lf 1024,9 hPa 0,0 l/m 0,00 h 0,00 h 34 W/m 3,6 km/h (1 Bft) 92,60 %
12.11.2015 15:00 14,5 C 14,5 C 12,8 C 85 % 0 lf 1024,5 hPa 0,0 l/m 0,00 h 0,00 h 28 W/m 2,9 km/h (1 Bft) 97,51 %
12.11.2015 16:00 14,2 C 14,2 C 12,5 C 86 % 0 lf 1024,1 hPa 0,0 l/m 0,00 h 0,00 h 12 W/m 4,1 km/h (1 Bft) 97,08 %
12.11.2015 17:00 14,0 C 13,9 C 12,2 C 85 % 0 lf 1023,7 hPa 0,0 l/m 0,00 h 0,00 h 0 W/m 7,2 km/h (2 Bft) 95,57 %
12.11.2015 18:00 13,8 C 13,9 C 12,2 C 84 % 0 lf 1023,3 hPa 0,0 l/m 0,00 h 0,00 h 0 W/m 7,1 km/h (2 Bft) 95,48 %
12.11.2015 19:00 13,6 C 13,9 C 12,2 C 84 % 0 lf 1023,0 hPa 0,0 l/m 0,00 h 0,00 h 0 W/m 8,7 km/h (2 Bft) 97,23 %
12.11.2015 20:00 13,5 C 13,8 C 12,2 C 83 % 0 lf 1022,5 hPa 0,0 l/m 0,00 h 0,00 h 0 W/m 11,0 km/h (2 Bft) 95,19 %
12.11.2015 21:00 13,4 C 13,3 C 12,2 C 83 % 0 lf 1021,9 hPa 0,0 l/m 0,00 h 0,00 h 0 W/m 11,7 km/h (2 Bft) 96,37 %
12.11.2015 22:00 13,3 C 13,4 C 12,2 C 82 % 0 lf 1021,5 hPa 0,0 l/m 0,00 h 0,00 h 0 W/m 15,2 km/h (3 Bft) 95,75 %
12.11.2015 23:00 13,4 C 13,6 C 12,2 C 81 % 0 lf 1021,2 hPa 0,0 l/m 0,00 h 0,00 h 0 W/m 17,3 km/h (3 Bft) 95,82 %
13.11.2015 00:00 13,5 C 13,8 C 12,2 C 81 % 0 lf 1020,9 hPa 0,0 l/m 0,00 h 0,00 h 0 W/m 17,8 km/h (3 Bft) 97,11 %
13.11.2015 01:00 13,4 C 13,4 C 12,1 C 82 % 0 lf 1020,5 hPa 0,0 l/m 0,00 h 0,00 h 0 W/m 16,4 km/h (3 Bft) 94,59 %
13.11.2015 02:00 13,2 C 13,3 C 11,7 C 83 % 0 lf 1020,2 hPa 0,0 l/m 0,00 h 0,00 h 0 W/m 15,5 km/h (3 Bft) 96,22 %
13.11.2015 03:00 13,4 C 13,7 C 12,1 C 83 % 0 lf 1020,0 hPa 0,0 l/m 0,00 h 0,00 h 0 W/m 17,1 km/h (3 Bft) 97,12 %
13.11.2015 04:00 13,6 C 13,9 C 12,2 C 83 % 0 lf 1019,7 hPa 0,0 l/m 0,00 h 0,00 h 0 W/m 17,1 km/h (3 Bft) 96,52 %
13.11.2015 05:00 13,6 C 13,8 C 12,2 C 83 % 0 lf 1019,7 hPa 0,0 l/m 0,00 h 0,00 h 0 W/m 18,5 km/h (3 Bft) 93,86 %
13.11.2015 06:00 13,6 C 13,8 C 12,2 C 84 % 0 lf 1019,7 hPa 0,0 l/m 0,00 h 0,00 h 0 W/m 17,6 km/h (3 Bft) 97,86 %
13.11.2015 07:00 13,6 C 13,7 C 12,1 C 84 % 0 lf 1019,6 hPa 0,0 l/m 0,00 h 0,00 h 5 W/m 20,6 km/h (4 Bft) 95,45 %
13.11.2015 08:00 13,5 C 13,7 C 12,0 C 86 % 0 lf 1020,1 hPa 0,0 l/m 0,00 h 0,00 h 18 W/m 25,0 km/h (4 Bft) 96,23 %
13.11.2015 09:00 13,6 C 13,7 C 12,2 C 87 % 1 lf 1020,7 hPa 0,0 l/m 0,00 h 0,07 h 31 W/m 28,3 km/h (4 Bft) 95,44 %
13.11.2015 10:00 12,7 C 12,0 C 10,7 C 90 % 14 lf 1021,0 hPa 0,6 l/m 0,00 h 0,33 h 62 W/m 23,0 km/h (4 Bft) 96,94 %
13.11.2015 11:00 12,7 C 13,0 C 11,0 C 87 % 7 lf 1021,2 hPa 0,0 l/m 0,23 h 0,00 h 141 W/m 23,0 km/h (4 Bft) 95,87 %
13.11.2015 12:00 13,4 C 14,8 C 11,5 C 82 % 0 lf 1021,0 hPa 0,0 l/m 0,27 h 0,03 h 154 W/m 22,5 km/h (4 Bft) 97,08 %
13.11.2015 13:00 13,9 C 15,8 C 12,2 C 81 % 0 lf 1020,6 hPa 0,0 l/m 0,57 h 0,00 h 175 W/m 25,0 km/h (4 Bft) 94,80 %
13.11.2015 14:00 13,3 C 13,5 C 11,9 C 80 % 1 lf 1020,0 hPa 0,0 l/m 0,00 h 0,17 h 48 W/m 18,5 km/h (3 Bft) 97,15 %
13.11.2015 15:00 13,0 C 13,7 C 11,7 C 79 % 0 lf 1019,4 hPa 0,0 l/m 0,43 h 0,00 h 85 W/m 19,0 km/h (3 Bft) 96,51 %
13.11.2015 16:00 12,7 C 12,6 C 11,0 C 77 % 0 lf 1019,2 hPa 0,0 l/m 0,20 h 0,00 h 20 W/m 27,6 km/h (4 Bft) 95,73 %
13.11.2015 17:00 11,8 C 11,0 C 9,6 C 79 % 7 lf 1019,6 hPa 0,8 l/m 0,00 h 0,37 h 0 W/m 37,5 km/h (5 Bft) 95,16 %
13.11.2015 18:00 9,5 C 9,1 C 7,2 C 89 % 15 lf 1020,5 hPa 0,2 l/m 0,00 h 0,57 h 0 W/m 27,6 km/h (4 Bft) 97,58 %
13.11.2015 19:00 9,1 C 8,9 C 6,9 C 88 % 15 lf 1021,5 hPa 0,2 l/m 0,00 h 0,60 h 0 W/m 25,1 km/h (4 Bft) 95,79 %
13.11.2015 20:00 8,7 C 8,2 C 6,2 C 84 % 10 lf 1022,1 hPa 0,0 l/m 0,00 h 0,00 h 0 W/m 25,7 km/h (4 Bft) 95,37 %
13.11.2015 21:00 8,2 C 8,1 C 6,1 C 88 % 0 lf 1022,5 hPa 0,0 l/m 0,00 h 0,00 h 0 W/m 26,1 km/h (4 Bft) 95,73 %
13.11.2015 22:00 8,3 C 8,3 C 6,1 C 85 % 0 lf 1022,8 hPa 0,0 l/m 0,00 h 0,00 h 0 W/m 32,2 km/h (5 Bft) 94,74 %
13.11.2015 23:00 8,2 C 8,2 C 6,6 C 82 % 0 lf 1023,5 hPa 0,0 l/m 0,00 h 0,00 h 0 W/m 32,4 km/h (5 Bft) 98,36 %
14.11.2015 00:00 7,8 C 7,7 C 6,1 C 80 % 0 lf 1024,3 hPa 0,0 l/m 0,00 h 0,00 h 0 W/m 26,8 km/h (4 Bft) 96,43 %
14.11.2015 01:00 7,4 C 7,1 C 5,8 C 79 % 0 lf 1024,8 hPa 0,0 l/m 0,00 h 0,00 h 0 W/m 24,3 km/h (4 Bft) 93,24 %
14.11.2015 02:00 7,1 C 7,0 C 5,6 C 82 % 0 lf 1024,9 hPa 0,0 l/m 0,00 h 0,00 h 0 W/m 27,5 km/h (4 Bft) 97,29 %
14.11.2015 03:00 7,3 C 7,2 C 6,0 C 84 % 0 lf 1024,4 hPa 0,0 l/m 0,00 h 0,00 h 0 W/m 32,9 km/h (5 Bft) 97,08 %
14.11.2015 04:00 7,5 C 7,4 C 6,1 C 84 % 0 lf 1024,2 hPa 0,0 l/m 0,00 h 0,00 h 0 W/m 31,8 km/h (5 Bft) 94,69 %
14.11.2015 05:00 7,5 C 7,4 C 6,1 C 86 % 0 lf 1024,2 hPa 0,0 l/m 0,00 h 0,00 h 0 W/m 29,9 km/h (5 Bft) 96,37 %
14.11.2015 06:00 7,7 C 8,0 C 6,5 C 86 % 0 lf 1024,4 hPa 0,0 l/m 0,00 h 0,00 h 0 W/m 31,0 km/h (5 Bft) 95,51 %
14.11.2015 07:00 8,0 C 8,0 C 6,7 C 84 % 0 lf 1024,9 hPa 0,0 l/m 0,00 h 0,00 h 6 W/m 34,7 km/h (5 Bft) 96,79 %
14.11.2015 08:00 7,8 C 7,9 C 6,6 C 86 % 0 lf 1025,3 hPa 0,0 l/m 0,02 h 0,03 h 33 W/m 28,7 km/h (4 Bft) 96,91 %
14.11.2015 09:00 8,1 C 9,5 C 7,3 C 86 % 0 lf 1025,4 hPa 0,0 l/m 0,98 h 0,00 h 132 W/m 28,7 km/h (4 Bft) 94,61 %
14.11.2015 10:00 9,3 C 11,5 C 8,6 C 84 % 0 lf 1025,4 hPa 0,0 l/m 1,00 h 0,00 h 189 W/m 34,5 km/h (5 Bft) 96,07 %
14.11.2015 11:00 10,0 C 11,5 C 9,4 C 81 % 0 lf 1025,5 hPa 0,0 l/m 0,50 h 0,00 h 169 W/m 30,1 km/h (5 Bft) 98,75 %
14.11.2015 12:00 10,3 C 11,2 C 9,5 C 81 % 0 lf 1025,0 hPa 0,0 l/m 0,00 h 0,00 h 121 W/m 29,5 km/h (5 Bft) 93,81 %
14.11.2015 13:00 10,4 C 11,3 C 9,6 C 81 % 0 lf 1024,7 hPa 0,0 l/m 0,00 h 0,00 h 127 W/m 30,8 km/h (5 Bft) 96,77 %
14.11.2015 14:00 10,6 C 11,2 C 9,5 C 81 % 3 lf 1024,1 hPa 0,0 l/m 0,00 h 0,50 h 91 W/m 28,1 km/h (4 Bft) 96,81 %
14.11.2015 15:00 9,9 C 9,0 C 7,7 C 87 % 15 lf 1023,6 hPa 0,6 l/m 0,00 h 1,00 h 15 W/m 14,4 km/h (3 Bft) 95,89 %
14.11.2015 16:00 9,0 C 8,1 C 7,2 C 91 % 15 lf 1023,0 hPa 0,2 l/m 0,00 h 0,53 h 6 W/m 15,3 km/h (3 Bft) 95,40 %
14.11.2015 17:00 8,7 C 8,3 C 7,2 C 93 % 15 lf 1022,3 hPa 0,0 l/m 0,00 h 0,70 h 0 W/m 21,4 km/h (4 Bft) 96,52 %
14.11.2015 18:00 8,7 C 8,3 C 7,2 C 94 % 15 lf 1021,6 hPa 0,4 l/m 0,00 h 0,90 h 0 W/m 19,7 km/h (3 Bft) 95,16 %
14.11.2015 19:00 8,7 C 8,3 C 7,2 C 95 % 15 lf 1020,6 hPa 0,0 l/m 0,00 h 0,73 h 0 W/m 23,0 km/h (4 Bft) 97,44 %
14.11.2015 20:00 8,8 C 8,2 C 6,9 C 93 % 15 lf 1019,4 hPa 0,2 l/m 0,00 h 1,00 h 0 W/m 28,9 km/h (5 Bft) 95,52 %
14.11.2015 21:00 8,4 C 7,8 C 6,7 C 92 % 15 lf 1018,2 hPa 1,0 l/m 0,00 h 1,00 h 0 W/m 25,1 km/h (4 Bft) 95,72 %
14.11.2015 22:00 8,3 C 8,0 C 6,9 C 95 % 15 lf 1016,8 hPa 0,6 l/m 0,00 h 0,73 h 0 W/m 27,5 km/h (4 Bft) 96,84 %
14.11.2015 23:00 9,1 C 8,9 C 7,7 C 96 % 15 lf 1015,4 hPa 0,0 l/m 0,00 h 0,00 h 0 W/m 39,5 km/h (6 Bft) 95,81 %
15.11.2015 00:00 10,1 C 10,0 C 8,5 C 96 % 15 lf 1014,6 hPa 0,0 l/m 0,00 h 0,07 h 0 W/m 43,8 km/h (6 Bft) 96,02 %
15.11.2015 01:00 10,5 C 10,3 C 8,9 C 96 % 15 lf 1013,7 hPa 0,0 l/m 0,00 h 0,03 h 0 W/m 39,3 km/h (6 Bft) 94,62 %
15.11.2015 02:00 10,9 C 10,6 C 9,3 C 95 % 7 lf 1013,0 hPa 0,0 l/m 0,00 h 0,07 h 0 W/m 38,3 km/h (5 Bft) 97,63 %
15.11.2015 03:00 11,2 C 10,7 C 9,5 C 96 % 15 lf 1011,8 hPa 1,0 l/m 0,00 h 0,97 h 0 W/m 37,8 km/h (5 Bft) 96,23 %
15.11.2015 04:00 11,8 C 11,5 C 10,2 C 96 % 15 lf 1010,8 hPa 0,0 l/m 0,00 h 0,33 h 0 W/m 42,8 km/h (6 Bft) 96,05 %
15.11.2015 05:00 12,3 C 11,9 C 10,6 C 96 % 15 lf 1010,4 hPa 0,0 l/m 0,00 h 0,13 h 0 W/m 46,1 km/h (6 Bft) 95,20 %
15.11.2015 06:00 12,7 C 12,5 C 10,8 C 95 % 15 lf 1010,2 hPa 0,0 l/m 0,00 h 0,50 h 0 W/m 45,9 km/h (6 Bft) 96,60 %
15.11.2015 07:00 13,2 C 13,4 C 11,4 C 93 % 1 lf 1010,1 hPa 0,0 l/m 0,00 h 0,00 h 0 W/m 45,4 km/h (6 Bft) 95,95 %
15.11.2015 08:00 13,6 C 13,9 C 12,0 C 91 % 0 lf 1010,3 hPa 0,0 l/m 0,00 h 0,00 h 15 W/m 45,5 km/h (6 Bft) 96,95 %
15.11.2015 09:00 14,1 C 14,7 C 12,8 C 89 % 0 lf 1010,4 hPa 0,0 l/m 0,00 h 0,00 h 58 W/m 45,3 km/h (6 Bft) 94,86 %
15.11.2015 10:00 14,7 C 15,6 C 13,6 C 87 % 0 lf 1010,4 hPa 0,0 l/m 0,03 h 0,00 h 100 W/m 44,0 km/h (6 Bft) 96,73 %
15.11.2015 11:00 15,7 C 17,0 C 14,6 C 83 % 0 lf 1010,2 hPa 0,0 l/m 0,67 h 0,00 h 190 W/m 51,8 km/h (7 Bft) 97,42 %
15.11.2015 12:00 16,1 C 16,6 C 14,7 C 83 % 3 lf 1010,3 hPa 0,0 l/m 0,17 h 0,37 h 139 W/m 49,2 km/h (6 Bft) 94,47 %
15.11.2015 13:00 15,7 C 16,1 C 13,5 C 85 % 8 lf 1010,3 hPa 0,2 l/m 0,00 h 0,80 h 110 W/m 43,4 km/h (6 Bft) 96,03 %
15.11.2015 14:00 15,3 C 15,1 C 12,7 C 87 % 15 lf 1010,6 hPa 0,2 l/m 0,00 h 0,90 h 49 W/m 37,3 km/h (5 Bft) 98,48 %
15.11.2015 15:00 14,9 C 14,5 C 12,5 C 89 % 14 lf 1011,0 hPa 0,6 l/m 0,13 h 0,97 h 42 W/m 30,1 km/h (5 Bft) 94,81 %
15.11.2015 16:00 14,3 C 13,7 C 12,0 C 91 % 15 lf 1011,5 hPa 0,2 l/m 0,17 h 0,30 h 21 W/m 23,6 km/h (4 Bft) 94,87 %
15.11.2015 17:00 14,4 C 13,7 C 11,7 C 90 % 15 lf 1012,3 hPa 0,4 l/m 0,00 h 0,80 h 0 W/m 32,2 km/h (5 Bft) 97,46 %
15.11.2015 18:00 13,7 C 12,8 C 11,1 C 92 % 15 lf 1012,6 hPa 0,6 l/m 0,00 h 0,60 h 0 W/m 28,5 km/h (4 Bft) 96,42 %
15.11.2015 19:00 13,7 C 12,8 C 11,1 C 89 % 10 lf 1013,0 hPa 0,0 l/m 0,00 h 0,00 h 0 W/m 33,4 km/h (5 Bft) 95,62 %
15.11.2015 20:00 13,7 C 13,8 C 11,0 C 87 % 0 lf 1013,6 hPa 0,0 l/m 0,00 h 0,00 h 0 W/m 30,9 km/h (5 Bft) 95,69 %
15.11.2015 21:00 13,3 C 13,3 C 11,3 C 86 % 0 lf 1013,9 hPa 0,0 l/m 0,00 h 0,00 h 0 W/m 26,8 km/h (4 Bft) 96,09 %
15.11.2015 22:00 13,0 C 12,9 C 11,5 C 86 % 0 lf 1014,2 hPa 0,0 l/m 0,00 h 0,00 h 0 W/m 23,1 km/h (4 Bft) 96,84 %
15.11.2015 23:00 12,6 C 12,7 C 11,1 C 86 % 0 lf 1014,3 hPa 0,0 l/m 0,00 h 0,00 h 0 W/m 25,7 km/h (4 Bft) 97,36 %
Min-Datum _ 14.11.15 14.11.15 14.11.15 09.11.15 09.11.15 15.11.15 - - - - 12.11.15 10.11.15
_ Min-Zeit 02:04 01:42 01:22 23:30 00:00 06:58 - - - - 14:58 12:24
Minimum _ 7,0 C 6,7 C 5,6 C 72 % 0 lf 1009,9 hPa - - - - 0,0 km/h (0 Bft) 68,00 %
Max-Datum _ 09.11.15 12.11.15 09.11.15 14.11.15 09.11.15 12.11.15 14.11.15 09.11.15 09.11.15 13.11.15 15.11.15 09.11.15
_ Max-Zeit 01:22 12:02 00:00 23:36 02:42 11:30 21:10 08:14 02:34 13:04 12:06 00:08
Maximum _ 17,4 C 23,3 C 15,6 C 97 % 15 lf 1025,7 hPa 1,0 l/m 0,03 h 0,03 h 382 W/m 73,2 km/h
W-SW (8 Bft)
100,00 %
Durchschnitt _ 12,6 C 12,8 C 11,1 C 86 % 3 lf 1020,9 hPa #9,2 l/m #10:58 h #18:18 h 77 W/m 25,8 km/h (4 Bft) 96,08 %
© 2015 W. Hausmann